Terminal Aerodrome Forecast
Issued by NWS

Home | Current Version | Previous Version | Text Only | Print | Product List | Glossary On
Versions: 1 2 3 4 5 6 7 8 9 10 11 12 13 14
000
FTUS41 KPHI 051938 AAA
TAFPNE
TAF AMD
KPNE 051938Z 0520/0618 31010KT P6SM BKN035
      TEMPO 0520/0521 BKN025
     FM052200 30010KT P6SM BKN040
     FM060000 32006KT P6SM SCT040
     FM060600 36004KT P6SM SCT250
     FM061200 06006KT P6SM OVC250=

USA.gov is the U.S. government's official web portal to all federal, state and local government web resources and services.